createdAt,value
2022-12-25T00:52:47.738Z,101770.47
2022-12-25T00:55:16.978Z,101774.03
2022-12-25T00:57:46.110Z,101773.28
2022-12-25T01:00:16.622Z,101757.09
2022-12-25T01:02:45.868Z,101774.47
2022-12-25T01:05:15.393Z,101772.50
2022-12-25T01:07:46.038Z,101772.47
2022-12-25T01:10:23.032Z,101768.72
2022-12-25T01:12:52.974Z,101765.72
2022-12-25T01:15:22.264Z,101773.06
2022-12-25T01:17:51.371Z,101770.88
2022-12-25T01:20:20.793Z,101793.97
2022-12-25T01:22:51.422Z,101780.53
2022-12-25T01:25:20.556Z,101779.94
2022-12-25T01:27:49.636Z,101784.81
2022-12-25T01:30:18.933Z,101759.53
2022-12-25T01:32:48.032Z,101792.28
2022-12-25T01:35:17.266Z,101791.69
2022-12-25T01:37:46.402Z,101798.75
2022-12-25T01:40:17.049Z,101772.59
2022-12-25T01:42:46.156Z,101792.28
2022-12-25T01:45:44.455Z,101791.59
2022-12-25T01:48:18.439Z,101767.94
2022-12-25T01:50:51.574Z,101771.63
2022-12-25T01:53:20.776Z,101797.31
2022-12-25T01:55:55.953Z,101796.56
2022-12-25T01:58:25.722Z,101795.59
2022-12-25T02:00:55.549Z,101797.66
2022-12-25T02:03:25.199Z,101782.56
2022-12-25T02:05:54.975Z,101768.47
2022-12-25T02:08:25.088Z,101797.03
2022-12-25T02:10:55.983Z,101789.22
2022-12-25T02:13:25.173Z,101798.06
2022-12-25T02:16:03.246Z,101804.19
2022-12-25T02:18:41.036Z,101793.84
2022-12-25T02:21:45.950Z,101798.25
2022-12-25T02:24:51.884Z,101738.25
2022-12-25T02:27:37.259Z,101772.69
2022-12-25T02:30:11.104Z,101803.50
2022-12-25T02:32:47.886Z,101810.44
2022-12-25T02:35:19.657Z,101777.84
2022-12-25T02:37:57.525Z,101778.16
2022-12-25T02:40:32.014Z,101802.00
2022-12-25T02:43:20.767Z,101794.03
2022-12-25T02:46:12.481Z,101808.19
2022-12-25T02:49:03.932Z,101787.88
2022-12-25T02:51:54.083Z,101796.84
2022-12-25T02:54:45.736Z,101797.91
2022-12-25T02:57:35.537Z,101771.47
2022-12-25T03:00:23.694Z,101799.00
2022-12-25T03:03:13.969Z,101794.66
2022-12-25T03:06:01.825Z,101794.78
2022-12-25T03:08:33.334Z,101788.81
2022-12-25T03:11:22.172Z,101788.81
2022-12-25T03:13:53.833Z,101787.84
2022-12-25T03:16:41.092Z,101795.88
2022-12-25T03:19:25.334Z,101773.69
2022-12-25T03:22:13.168Z,101779.09
2022-12-25T03:25:11.774Z,101799.41
2022-12-25T03:27:43.601Z,101805.69
2022-12-25T03:30:30.350Z,101807.59
2022-12-25T03:33:23.288Z,101775.13
2022-12-25T03:36:05.055Z,101813.09
2022-12-25T03:39:00.575Z,101806.31
2022-12-25T03:41:57.284Z,101804.78
2022-12-25T03:44:47.203Z,101792.69
2022-12-25T03:47:37.336Z,101766.47
2022-12-25T03:50:31.553Z,101802.78
2022-12-25T03:53:23.680Z,101795.94
2022-12-25T03:56:12.132Z,101797.88
2022-12-25T03:59:10.774Z,101816.31
2022-12-25T04:01:56.854Z,101812.19
2022-12-25T04:04:43.360Z,101816.66
2022-12-25T04:07:29.268Z,101806.31
2022-12-25T04:10:17.033Z,101804.72
2022-12-25T04:13:03.171Z,101821.13
2022-12-25T04:15:49.045Z,101809.91
2022-12-25T04:18:35.173Z,101802.91
2022-12-25T04:21:21.233Z,101796.09
2022-12-25T04:24:07.238Z,101802.38
2022-12-25T04:27:06.436Z,101798.75
2022-12-25T04:29:52.596Z,101795.47
2022-12-25T04:32:38.865Z,101787.56
2022-12-25T04:35:25.466Z,101792.00
2022-12-25T04:37:54.771Z,101774.47
2022-12-25T04:40:23.864Z,101769.38
2022-12-25T04:42:55.001Z,101782.06
2022-12-25T04:45:24.143Z,101782.31
2022-12-25T04:47:53.303Z,101784.25
2022-12-25T04:50:22.561Z,101667.28
2022-12-25T04:52:51.780Z,101773.38
2022-12-25T04:55:20.949Z,101768.56
2022-12-25T04:57:50.043Z,101776.72
2022-12-25T05:00:21.419Z,101759.44
2022-12-25T05:02:50.671Z,101775.44
2022-12-25T05:05:20.159Z,101773.06
2022-12-25T05:07:49.517Z,101772.34
2022-12-25T05:10:19.525Z,101768.72
2022-12-25T05:12:48.655Z,101768.06
2022-12-25T05:15:17.925Z,101758.38
2022-12-25T05:17:48.559Z,101770.75
2022-12-25T05:20:17.779Z,101751.63
2022-12-25T05:22:46.922Z,101763.16
2022-12-25T05:25:16.114Z,101760.59
2022-12-25T05:27:48.806Z,101753.47
2022-12-25T05:30:22.887Z,101764.84
2022-12-25T05:32:53.469Z,101760.66
2022-12-25T05:35:23.690Z,101750.31
2022-12-25T05:37:52.846Z,101741.53
2022-12-25T05:40:21.962Z,101753.78
2022-12-25T05:42:51.395Z,101750.31
2022-12-25T05:45:20.650Z,101751.16
2022-12-25T05:47:49.766Z,101730.91
2022-12-25T05:50:20.584Z,101751.84
2022-12-25T05:52:49.788Z,101732.84
2022-12-25T05:55:19.064Z,101753.25
2022-12-25T05:57:48.152Z,101752.50
2022-12-25T06:00:17.765Z,101709.38
2022-12-25T06:02:47.096Z,101747.47
2022-12-25T06:05:16.396Z,101730.78
2022-12-25T06:07:47.038Z,101745.81
2022-12-25T06:10:16.490Z,101750.13
2022-12-25T06:12:45.681Z,101741.59
2022-12-25T06:15:14.805Z,101729.53
2022-12-25T06:17:44.026Z,101727.75
2022-12-25T06:20:13.418Z,101732.19
2022-12-25T06:22:42.665Z,101728.69
2022-12-25T06:25:13.821Z,101738.19
2022-12-25T06:27:43.066Z,101713.50
2022-12-25T06:30:12.860Z,101740.63
2022-12-25T06:32:42.068Z,101743.16
2022-12-25T06:35:11.552Z,101730.84
2022-12-25T06:37:40.780Z,101743.09
2022-12-25T06:40:11.001Z,101730.84
2022-12-25T06:42:41.695Z,101737.09
2022-12-25T06:45:11.626Z,101730.97
2022-12-25T06:47:40.771Z,101720.63
2022-12-25T06:50:10.427Z,101718.97
2022-12-25T06:52:39.632Z,101717.22
2022-12-25T06:55:09.492Z,101718.84
2022-12-25T06:57:38.876Z,101712.94
2022-12-25T07:00:11.204Z,101711.06
2022-12-25T07:02:40.579Z,101712.78
2022-12-25T07:05:10.279Z,101704.13
2022-12-25T07:07:39.373Z,101713.00
2022-12-25T07:10:09.784Z,101707.75
2022-12-25T07:12:38.898Z,101703.41
2022-12-25T07:15:11.288Z,101713.84
2022-12-25T07:17:40.376Z,101705.09
2022-12-25T07:20:10.717Z,101698.94
2022-12-25T07:22:39.820Z,101698.81
2022-12-25T07:25:09.575Z,101719.88
2022-12-25T07:27:38.689Z,101711.25
2022-12-25T07:30:10.850Z,101699.63
2022-12-25T07:32:39.980Z,101717.50
2022-12-25T07:35:09.728Z,101716.66
2022-12-25T07:37:38.895Z,101706.09
2022-12-25T07:40:09.443Z,101720.03
2022-12-25T07:42:38.617Z,101711.38
2022-12-25T07:45:10.294Z,101718.31
2022-12-25T07:47:39.463Z,101708.78
2022-12-25T07:50:09.810Z,101706.88
2022-12-25T07:52:43.396Z,101695.56
2022-12-25T07:55:13.159Z,101695.44
2022-12-25T07:57:42.650Z,101703.34
2022-12-25T08:00:15.314Z,101702.41
2022-12-25T08:02:44.757Z,101704.00
2022-12-25T08:05:14.266Z,101695.13
2022-12-25T08:07:43.353Z,101689.00
2022-12-25T08:10:13.208Z,101696.91
2022-12-25T08:12:42.302Z,101689.94
2022-12-25T08:15:14.380Z,101681.22
2022-12-25T08:17:43.553Z,101677.69
2022-12-25T08:20:13.324Z,101684.63
2022-12-25T08:22:42.485Z,101683.81
2022-12-25T08:25:12.076Z,101673.16
2022-12-25T08:27:41.205Z,101670.72
2022-12-25T08:30:11.477Z,101686.38
2022-12-25T08:32:42.213Z,101690.63
2022-12-25T08:35:11.682Z,101673.91
2022-12-25T08:37:41.058Z,101680.09
2022-12-25T08:40:11.356Z,101684.34
2022-12-25T08:42:40.522Z,101681.63
2022-12-25T08:45:10.909Z,101681.47
2022-12-25T08:47:41.527Z,101687.59
2022-12-25T08:50:11.536Z,101687.59
2022-12-25T08:52:41.060Z,101700.47
2022-12-25T08:55:10.778Z,101696.09
2022-12-25T08:57:40.002Z,101690.69
2022-12-25T09:00:10.831Z,101686.22
2022-12-25T09:02:41.681Z,101672.94
2022-12-25T09:05:11.697Z,101683.56
2022-12-25T09:07:40.919Z,101650.16
2022-12-25T09:10:11.030Z,101697.47
2022-12-25T09:12:40.160Z,101695.69
2022-12-25T09:15:09.992Z,101692.16
2022-12-25T09:17:39.247Z,101689.63
2022-12-25T09:20:10.710Z,101697.34
2022-12-25T09:22:39.953Z,101695.53
2022-12-25T09:25:09.690Z,101680.72
2022-12-25T09:27:38.930Z,101691.94
2022-12-25T09:30:09.699Z,101678.00
2022-12-25T09:32:40.602Z,101674.31
2022-12-25T09:35:11.710Z,101679.72
2022-12-25T09:37:40.948Z,101682.31
2022-12-25T09:40:12.219Z,101620.56
2022-12-25T09:42:41.988Z,101681.94
2022-12-25T09:45:17.346Z,101680.13
2022-12-25T09:47:49.850Z,101677.56
2022-12-25T09:50:25.620Z,101681.06
2022-12-25T09:53:00.384Z,101693.03
2022-12-25T09:55:32.618Z,101695.53
2022-12-25T09:58:13.123Z,101710.25
2022-12-25T10:00:45.266Z,101705.84
2022-12-25T10:03:35.056Z,101709.31
2022-12-25T10:06:18.919Z,101581.69
2022-12-25T10:09:23.701Z,101620.41
2022-12-25T10:12:04.476Z,101604.09
2022-12-25T10:14:41.685Z,101582.75
2022-12-25T10:17:28.152Z,101709.91
2022-12-25T10:20:08.848Z,101705.59
2022-12-25T10:22:42.995Z,101715.03
2022-12-25T10:25:19.053Z,101730.50
2022-12-25T10:27:52.679Z,101601.34
2022-12-25T10:30:24.038Z,101642.75
2022-12-25T10:32:54.829Z,101674.66
2022-12-25T10:35:27.024Z,101656.19
2022-12-25T10:38:02.040Z,101701.22
2022-12-25T10:40:40.663Z,101538.75
2022-12-25T10:43:14.190Z,101569.75
2022-12-25T10:45:48.156Z,101700.03
2022-12-25T10:48:23.452Z,101701.91
2022-12-25T10:50:52.800Z,101699.34
2022-12-25T10:53:26.843Z,101710.50
2022-12-25T10:55:57.708Z,101538.03
2022-12-25T10:58:27.116Z,101705.38
2022-12-25T11:00:59.626Z,101701.06
2022-12-25T11:03:32.353Z,101666.69
2022-12-25T11:06:03.213Z,101695.03
2022-12-25T11:08:35.560Z,101674.88
2022-12-25T11:11:07.845Z,101694.16
2022-12-25T11:13:41.678Z,101695.16
2022-12-25T11:16:15.316Z,101672.38
2022-12-25T11:18:50.124Z,101678.50
2022-12-25T11:21:21.262Z,101686.38
2022-12-25T11:23:57.955Z,101689.09
2022-12-25T11:26:29.136Z,101692.66
2022-12-25T11:28:59.244Z,101689.19
2022-12-25T11:31:38.552Z,101687.50
2022-12-25T11:34:13.391Z,101672.69
2022-12-25T11:36:47.100Z,101677.19
2022-12-25T11:39:24.675Z,101683.22
2022-12-25T11:41:59.233Z,101684.97
2022-12-25T11:44:40.594Z,101684.91
2022-12-25T11:47:17.420Z,101682.16
2022-12-25T11:49:56.179Z,101671.81
2022-12-25T11:52:34.220Z,101691.00
2022-12-25T11:55:10.298Z,101625.84
2022-12-25T11:57:41.054Z,101687.56
2022-12-25T12:00:16.406Z,101692.72
2022-12-25T12:02:50.730Z,101689.09
2022-12-25T12:05:25.956Z,101694.44
2022-12-25T12:07:59.764Z,101686.56
2022-12-25T12:10:43.749Z,101679.50
2022-12-25T12:13:28.812Z,101691.00
2022-12-25T12:15:58.941Z,101694.38
2022-12-25T12:18:33.856Z,101685.69
2022-12-25T12:21:06.474Z,101689.19
2022-12-25T12:23:38.799Z,101676.81
2022-12-25T12:26:09.523Z,101666.41
2022-12-25T12:28:46.874Z,101659.28
2022-12-25T12:31:17.797Z,101674.97
2022-12-25T12:33:53.974Z,101695.03
2022-12-25T12:36:35.571Z,101621.06
2022-12-25T12:39:07.233Z,101569.09
2022-12-25T12:41:49.866Z,101548.50
2022-12-25T12:44:20.199Z,101535.41
2022-12-25T12:46:54.872Z,101519.44
2022-12-25T12:49:27.002Z,101706.25
2022-12-25T12:52:07.211Z,101458.13
2022-12-25T12:54:56.552Z,101638.72
2022-12-25T12:57:30.258Z,101668.28
2022-12-25T13:00:08.428Z,101638.19
2022-12-25T13:03:19.900Z,101659.78
2022-12-25T13:05:54.590Z,101563.34
2022-12-25T13:08:36.176Z,101512.63
2022-12-25T13:11:12.688Z,101606.38
2022-12-25T13:13:46.168Z,101516.84
2022-12-25T13:16:25.395Z,101498.06
2022-12-25T13:18:56.588Z,101552.81
2022-12-25T13:21:27.250Z,101496.53
2022-12-25T13:24:02.081Z,101542.28
2022-12-25T13:26:32.236Z,101563.69
2022-12-25T13:29:07.851Z,101483.31
2022-12-25T13:31:43.074Z,101571.72
2022-12-25T13:34:24.956Z,101539.41
2022-12-25T13:36:54.296Z,101606.22
2022-12-25T13:39:25.528Z,101540.00
2022-12-25T13:42:07.128Z,101655.84
2022-12-25T13:44:48.307Z,101613.28
2022-12-25T13:47:24.192Z,101484.13
2022-12-25T13:49:55.533Z,101511.34
2022-12-25T13:52:29.859Z,101632.38
2022-12-25T13:55:01.852Z,101606.69
2022-12-25T13:57:35.254Z,101647.22
2022-12-25T14:00:08.484Z,101656.13
2022-12-25T14:02:39.278Z,101600.72
2022-12-25T14:05:27.094Z,101645.69
2022-12-25T14:07:57.036Z,101629.03
2022-12-25T14:10:29.288Z,101576.94
2022-12-25T14:13:01.690Z,101637.00
2022-12-25T14:15:34.740Z,101642.19
2022-12-25T14:18:04.420Z,101633.25
2022-12-25T14:20:39.061Z,101631.00
2022-12-25T14:23:09.388Z,101623.94
2022-12-25T14:25:45.192Z,101607.13
2022-12-25T14:28:22.002Z,101628.19
2022-12-25T14:30:53.308Z,101593.03
2022-12-25T14:33:25.254Z,101628.13
2022-12-25T14:35:54.865Z,101623.00
2022-12-25T14:38:26.602Z,101632.28
2022-12-25T14:41:02.632Z,101630.00
2022-12-25T14:43:33.478Z,101627.41
2022-12-25T14:46:09.561Z,101627.41
2022-12-25T14:48:38.893Z,101581.75
2022-12-25T14:51:11.254Z,101590.63
2022-12-25T14:53:48.078Z,101618.78
2022-12-25T14:56:20.190Z,101626.53
2022-12-25T14:58:52.593Z,101603.84
2022-12-25T15:01:29.271Z,101601.97
2022-12-25T15:04:10.099Z,101608.13
2022-12-25T15:06:41.759Z,101483.31
2022-12-25T15:09:17.819Z,101454.69
2022-12-25T15:11:50.108Z,101475.25
2022-12-25T15:14:19.740Z,101467.34
2022-12-25T15:16:52.434Z,101495.56
2022-12-25T15:19:26.620Z,101611.84
2022-12-25T15:21:57.867Z,101611.84
2022-12-25T15:24:27.242Z,101613.59
2022-12-25T15:27:00.857Z,101614.44
2022-12-25T15:30:07.852Z,101597.84
2022-12-25T15:32:22.889Z,101599.66
2022-12-25T15:34:53.469Z,101605.75
2022-12-25T15:37:22.540Z,101607.38
2022-12-25T15:39:51.632Z,101593.31
2022-12-25T15:42:25.359Z,101596.06
2022-12-25T15:44:54.475Z,101596.19
2022-12-25T15:47:25.600Z,101577.75
2022-12-25T15:49:57.130Z,101588.22
2022-12-25T15:52:26.256Z,101580.34
2022-12-25T15:54:55.395Z,101590.22
2022-12-25T15:57:26.738Z,101591.91
2022-12-25T15:59:55.916Z,101585.84
2022-12-25T16:02:27.989Z,101576.22
2022-12-25T16:04:57.273Z,101548.94
2022-12-25T16:07:28.080Z,101585.69
2022-12-25T16:09:57.210Z,101585.03
2022-12-25T16:12:26.279Z,101590.22
2022-12-25T16:14:55.517Z,101582.47
2022-12-25T16:17:26.156Z,101585.03
2022-12-25T16:19:55.317Z,101595.47
2022-12-25T16:22:26.543Z,101571.63
2022-12-25T16:24:56.108Z,101582.56
2022-12-25T16:27:25.652Z,101586.91
2022-12-25T16:29:56.075Z,101586.72
2022-12-25T16:32:26.841Z,101505.28
2022-12-25T16:34:56.032Z,101481.44
2022-12-25T16:37:25.332Z,101552.38
2022-12-25T16:39:54.608Z,101489.13
2022-12-25T16:42:23.876Z,101491.41
2022-12-25T16:44:53.182Z,101520.94
2022-12-25T16:47:22.663Z,101432.75
2022-12-25T16:49:53.510Z,101421.84
2022-12-25T16:52:22.865Z,101541.91
2022-12-25T16:54:52.161Z,101490.31
2022-12-25T16:57:21.421Z,101443.88
2022-12-25T16:59:50.751Z,101584.25
2022-12-25T17:02:22.219Z,101526.75
2022-12-25T17:04:53.115Z,101510.38
2022-12-25T17:07:22.510Z,101585.06
2022-12-25T17:09:52.291Z,101576.53
2022-12-25T17:12:21.545Z,101328.69
2022-12-25T17:14:50.763Z,101575.44
2022-12-25T17:17:20.014Z,101441.72
2022-12-25T17:19:49.418Z,101465.94
2022-12-25T17:22:20.136Z,101524.66
2022-12-25T17:24:49.438Z,101509.16
2022-12-25T17:27:19.134Z,101421.56
2022-12-25T17:29:50.155Z,101543.34
2022-12-25T17:32:19.453Z,101411.72
2022-12-25T17:34:49.376Z,101527.25
2022-12-25T17:37:20.189Z,101442.09
2022-12-25T17:39:49.648Z,101542.97
2022-12-25T17:42:18.932Z,101404.69
2022-12-25T17:44:48.757Z,101495.28
2022-12-25T17:47:17.965Z,101433.91
2022-12-25T17:49:47.159Z,101571.47
2022-12-25T17:52:16.351Z,101443.09
2022-12-25T17:54:47.148Z,101424.44
2022-12-25T17:57:16.419Z,101409.81
2022-12-25T17:59:45.734Z,101510.56
2022-12-25T18:02:15.111Z,101456.28
2022-12-25T18:04:44.362Z,101437.28
2022-12-25T18:07:14.800Z,101446.91
2022-12-25T18:09:44.117Z,101541.47
2022-12-25T18:12:14.876Z,101506.31
2022-12-25T18:14:44.242Z,101517.53
2022-12-25T18:17:13.464Z,101442.09
2022-12-25T18:19:42.685Z,101407.00
2022-12-25T18:22:11.931Z,101406.66
2022-12-25T18:24:41.519Z,101432.53
2022-12-25T18:27:10.770Z,101397.09
2022-12-25T18:29:41.650Z,101397.16
2022-12-25T18:32:11.048Z,101370.09
2022-12-25T18:34:40.298Z,101385.28
2022-12-25T18:37:09.565Z,101479.25
2022-12-25T18:39:38.801Z,101541.31
2022-12-25T18:42:25.337Z,101497.94
2022-12-25T18:44:56.178Z,101420.47
2022-12-25T18:47:25.564Z,101378.59
2022-12-25T18:49:54.982Z,101377.88
2022-12-25T18:52:47.809Z,101544.94
2022-12-25T18:55:13.550Z,101400.75
2022-12-25T18:57:42.798Z,101390.00
2022-12-25T19:00:14.199Z,101389.63
2022-12-25T19:02:43.638Z,101344.38
2022-12-25T19:05:12.980Z,101418.06
2022-12-25T19:07:42.256Z,101400.69
2022-12-25T19:10:12.098Z,101444.16
2022-12-25T19:12:41.311Z,101327.56
2022-12-25T19:15:11.394Z,101552.78
2022-12-25T19:17:42.191Z,101371.63
2022-12-25T19:20:13.329Z,101520.03
2022-12-25T19:22:42.586Z,101357.56
2022-12-25T19:25:12.251Z,101413.78
2022-12-25T19:27:41.466Z,101448.81
2022-12-25T19:30:12.449Z,101419.69
2022-12-25T19:32:43.160Z,101459.72
2022-12-25T19:35:12.501Z,101418.13
2022-12-25T19:37:41.755Z,101375.88
2022-12-25T19:40:11.872Z,101394.06
2022-12-25T19:42:41.157Z,101550.91
2022-12-25T19:45:11.307Z,101404.38
2022-12-25T19:47:44.749Z,101541.50
2022-12-25T19:50:13.963Z,101356.53
2022-12-25T19:52:44.786Z,101333.16
2022-12-25T19:55:14.031Z,101361.16
2022-12-25T19:57:43.296Z,101514.41
2022-12-25T20:00:13.100Z,101453.44
2022-12-25T20:02:44.002Z,101530.09
2022-12-25T20:05:13.281Z,101399.75
2022-12-25T20:07:42.494Z,101403.41
2022-12-25T20:10:12.074Z,101392.69
2022-12-25T20:12:41.294Z,101381.28
2022-12-25T20:15:11.531Z,101435.34
2022-12-25T20:17:40.749Z,101328.84
2022-12-25T20:20:12.625Z,101406.63
2022-12-25T20:22:41.869Z,101350.09
2022-12-25T20:25:11.853Z,101479.03
2022-12-25T20:27:41.087Z,101411.09
2022-12-25T20:30:11.176Z,101418.03
2022-12-25T20:32:43.721Z,101476.81
2022-12-25T20:35:19.472Z,101536.91
2022-12-25T20:37:48.687Z,101527.50
2022-12-25T20:40:18.026Z,101360.28
2022-12-25T20:42:47.189Z,101476.16
2022-12-25T20:45:16.500Z,101441.22
2022-12-25T20:47:45.683Z,101530.09
2022-12-25T20:50:14.905Z,101485.19
2022-12-25T20:52:45.782Z,101525.81
2022-12-25T20:55:15.159Z,101439.63
2022-12-25T20:57:44.403Z,101222.78
2022-12-25T21:00:15.358Z,101532.41
2022-12-25T21:02:45.029Z,101438.28
2022-12-25T21:05:14.385Z,101395.72
2022-12-25T21:07:45.143Z,101309.16
2022-12-25T21:10:14.411Z,101489.25
2022-12-25T21:12:43.616Z,101347.97
2022-12-25T21:15:15.736Z,101385.88
2022-12-25T21:17:45.287Z,101329.88
2022-12-25T21:20:14.605Z,101488.22
2022-12-25T21:22:45.532Z,101459.00
2022-12-25T21:25:14.783Z,101361.00
2022-12-25T21:27:43.983Z,101524.44
2022-12-25T21:30:15.217Z,101498.75
2022-12-25T21:33:01.906Z,101450.47
2022-12-25T21:35:31.218Z,101431.38
2022-12-25T21:38:02.052Z,101428.88
2022-12-25T21:40:31.505Z,101380.88
2022-12-25T21:43:00.992Z,101485.81
2022-12-25T21:45:30.468Z,101386.09
2022-12-25T21:48:02.957Z,101322.50
2022-12-25T21:50:49.636Z,101357.13
2022-12-25T21:53:21.490Z,101411.69
2022-12-25T21:56:02.641Z,101357.38
2022-12-25T21:58:32.113Z,101367.72
2022-12-25T22:01:04.728Z,101359.91
2022-12-25T22:03:34.054Z,101555.78
2022-12-25T22:06:21.826Z,101387.25
2022-12-25T22:08:52.730Z,101258.41
2022-12-25T22:11:39.033Z,101453.78
2022-12-25T22:14:52.316Z,101534.22
2022-12-25T22:17:32.091Z,101439.34
2022-12-25T22:20:01.594Z,101421.16
2022-12-25T22:22:32.563Z,101411.78
2022-12-25T22:25:05.603Z,101424.84
2022-12-25T22:27:35.897Z,101378.00
2022-12-25T22:30:05.923Z,101536.00
2022-12-25T22:32:35.990Z,101390.81
2022-12-25T22:35:05.695Z,101444.41
2022-12-25T22:37:36.341Z,101422.19
2022-12-25T22:40:08.461Z,101555.97
2022-12-25T22:42:37.832Z,101510.31
2022-12-25T22:45:07.774Z,101416.22
2022-12-25T22:47:37.223Z,101400.59
2022-12-25T22:50:07.045Z,101453.38
2022-12-25T22:52:36.325Z,101345.22
2022-12-25T22:55:09.054Z,101365.28
2022-12-25T22:57:38.675Z,101474.19
2022-12-25T23:00:10.501Z,101420.72
2022-12-25T23:02:39.996Z,101435.34
2022-12-25T23:05:09.937Z,101535.25
2022-12-25T23:07:39.223Z,101452.97
2022-12-25T23:10:11.820Z,101427.44
2022-12-25T23:12:57.897Z,101476.06
2022-12-25T23:15:28.029Z,101329.44
2022-12-25T23:18:14.266Z,101533.53
2022-12-25T23:21:05.870Z,101536.19
2022-12-25T23:23:52.065Z,101383.06
2022-12-25T23:26:23.422Z,101389.34
2022-12-25T23:29:09.600Z,101555.97
2022-12-25T23:31:41.467Z,101496.63
2022-12-25T23:34:10.979Z,101561.94
2022-12-25T23:36:40.202Z,101398.72
2022-12-25T23:39:10.591Z,101545.56
2022-12-25T23:41:43.515Z,101518.06
2022-12-25T23:44:14.507Z,101388.97
2022-12-25T23:46:52.918Z,101467.38
2022-12-25T23:49:23.168Z,101394.72
2022-12-25T23:51:53.099Z,101515.41
2022-12-25T23:54:24.684Z,101399.94
2022-12-25T23:56:57.747Z,101546.50
2022-12-25T23:59:27.098Z,101385.81
